Aviation Digital Data Service (ADDS)

Output produced by METARs form (1333 UTC 25 September 2017)
found at http://www.aviationweather.gov/adds/metars/
 
KJFK 251307Z 2513/2618 14004KT P6SM SKC 
     FM251800 12009KT P6SM FEW250 
     FM260200 13004KT 5SM BR SCT008 SCT250 
     FM260600 06004KT 2SM BR BKN007 
     FM261400 06005KT P6SM SCT010